Time;durP1;ratioP1;P1;durP2;ratioP2;P2;SDS_P1;SDS_P2;PMS_P1;PMS_P2;Temp;Humidity;BMP_temperature;BMP_pressure;BME280_temperature;BME280_humidity;BME280_pressure;Samples;Min_cycle;Max_cycle;Signal;HPM_P1;HPM_P2
2023/03/21 00:00:23;;;;;;;20.52;12.73;;;12.20;79.10;;;;;;5097972;28;20051;-64
2023/03/21 00:02:49;;;;;;;18.30;12.70;;;12.20;79.20;;;;;;5093475;28;20203;-65
2023/03/21 00:05:15;;;;;;;20.33;12.70;;;12.20;79.30;;;;;;5100944;28;20028;-64
2023/03/21 00:07:41;;;;;;;18.05;12.35;;;12.20;79.40;;;;;;5100687;28;20052;-64
2023/03/21 00:10:06;;;;;;;21.17;12.45;;;12.20;79.60;;;;;;5095998;28;20027;-64
2023/03/21 00:12:36;;;;;;;19.45;12.45;;;12.20;79.60;;;;;;5102901;28;20519;-64
2023/03/21 00:15:07;;;;;;;21.77;13.82;;;12.20;79.80;;;;;;5095012;28;20031;-64
2023/03/21 00:17:33;;;;;;;21.98;13.07;;;12.20;79.80;;;;;;5102875;28;20032;-64
2023/03/21 00:20:05;;;;;;;21.17;13.32;;;12.20;79.80;;;;;;5077244;28;20024;-64
2023/03/21 00:22:33;;;;;;;18.37;12.80;;;12.20;79.90;;;;;;5096849;28;20356;-64
2023/03/21 00:24:59;;;;;;;20.25;13.60;;;12.20;80.00;;;;;;5095118;28;20047;-64
2023/03/21 00:27:26;;;;;;;21.23;14.15;;;12.20;80.00;;;;;;5096131;28;20103;-64
2023/03/21 00:29:54;;;;;;;21.58;13.95;;;12.20;80.10;;;;;;5096547;28;20360;-64
2023/03/21 00:32:20;;;;;;;22.42;14.02;;;12.20;80.20;;;;;;5087770;28;20024;-64
2023/03/21 00:34:47;;;;;;;22.45;13.57;;;12.10;80.20;;;;;;5095436;28;20035;-64
2023/03/21 00:37:17;;;;;;;18.67;14.27;;;12.20;80.30;;;;;;5104036;28;20047;-64
2023/03/21 00:39:47;;;;;;;20.67;13.60;;;12.20;80.30;;;;;;5095622;28;20024;-64
2023/03/21 00:42:17;;;;;;;18.35;13.50;;;12.20;80.40;;;;;;5100501;28;20039;-64
2023/03/21 00:44:43;;;;;;;23.02;13.07;;;12.10;80.40;;;;;;5096604;28;20040;-64
2023/03/21 00:47:11;;;;;;;21.50;14.70;;;12.10;80.40;;;;;;5097232;28;20019;-64
2023/03/21 00:49:37;;;;;;;21.90;13.38;;;12.10;80.40;;;;;;5083844;28;20039;-64
2023/03/21 00:52:06;;;;;;;18.83;13.48;;;12.10;80.50;;;;;;5101156;28;20020;-65
2023/03/21 00:54:33;;;;;;;17.67;13.10;;;12.10;80.50;;;;;;5095569;28;20039;-64
2023/03/21 00:57:01;;;;;;;18.05;13.13;;;12.10;80.50;;;;;;5098165;28;20020;-64
2023/03/21 00:59:29;;;;;;;19.98;13.30;;;12.10;80.50;;;;;;5095773;28;20391;-64
2023/03/21 01:01:59;;;;;;;17.05;13.00;;;12.10;80.50;;;;;;5101433;28;20484;-64
2023/03/21 01:04:25;;;;;;;17.75;12.18;;;12.20;80.50;;;;;;5094662;28;20051;-65
2023/03/21 01:06:52;;;;;;;19.17;13.20;;;12.20;80.50;;;;;;5094061;28;20012;-65
2023/03/21 01:09:21;;;;;;;20.73;13.43;;;12.20;80.50;;;;;;5085849;28;20024;-65
2023/03/21 01:11:48;;;;;;;21.48;13.35;;;12.10;80.40;;;;;;5075877;28;20500;-65
2023/03/21 01:14:16;;;;;;;17.73;12.65;;;12.20;81.00;;;;;;5094157;28;20020;-65
2023/03/21 01:16:42;;;;;;;19.35;13.13;;;12.20;80.30;;;;;;5092837;28;20036;-65
2023/03/21 01:19:13;;;;;;;17.92;13.15;;;12.20;80.30;;;;;;5096045;28;20425;-65
2023/03/21 01:21:39;;;;;;;22.38;13.70;;;12.10;80.30;;;;;;5092538;28;20047;-64
2023/03/21 01:24:05;;;;;;;17.50;13.13;;;12.10;80.30;;;;;;5100496;28;20047;-65
2023/03/21 01:26:32;;;;;;;18.00;12.82;;;12.20;80.40;;;;;;5093516;28;20032;-65
2023/03/21 01:28:58;;;;;;;18.63;12.20;;;12.10;80.40;;;;;;5110931;28;20021;-65
2023/03/21 01:31:24;;;;;;;19.48;13.60;;;12.10;80.40;;;;;;5093969;28;20103;-65
2023/03/21 01:33:50;;;;;;;17.85;13.02;;;12.10;80.40;;;;;;5097690;28;20428;-64
2023/03/21 01:36:20;;;;;;;17.05;12.82;;;12.10;80.50;;;;;;5095436;28;20028;-65
2023/03/21 01:38:48;;;;;;;20.02;13.35;;;12.10;80.50;;;;;;5096241;28;20028;-65
2023/03/21 01:41:35;;;;;;;19.98;13.50;;;12.10;80.50;;;;;;5095187;28;20024;-65
2023/03/21 01:44:01;;;;;;;18.55;13.05;;;12.10;80.50;;;;;;5098174;28;20038;-65
2023/03/21 01:46:41;;;;;;;19.67;12.32;;;12.10;80.50;;;;;;5094412;28;20020;-65
2023/03/21 01:49:34;;;;;;;17.80;11.60;;;12.00;80.60;;;;;;5092395;28;20035;-64
2023/03/21 01:52:22;;;;;;;17.05;11.45;;;12.10;80.60;;;;;;5096608;28;20082;-65
2023/03/21 01:54:50;;;;;;;19.90;11.80;;;12.00;80.60;;;;;;5077385;28;20032;-65
2023/03/21 01:57:22;;;;;;;18.52;11.38;;;12.00;80.70;;;;;;5077733;28;20028;-64
2023/03/21 01:59:53;;;;;;;15.93;11.32;;;12.00;80.70;;;;;;5092071;28;20357;-65
2023/03/21 02:02:27;;;;;;;16.65;11.60;;;12.00;80.70;;;;;;5096931;28;20067;-65
2023/03/21 02:05:14;;;;;;;;;;;12.10;80.80;;;;;;5088675;28;20085;-64
2023/03/21 02:07:42;;;;;;;14.32;9.73;;;12.10;80.70;;;;;;5094033;28;19908;-65
2023/03/21 02:10:11;;;;;;;15.88;10.57;;;12.00;80.60;;;;;;5092677;28;20206;-65
2023/03/21 02:12:40;;;;;;;16.98;11.85;;;12.00;80.70;;;;;;5094690;28;20028;-65
2023/03/21 02:15:08;;;;;;;16.45;11.40;;;12.00;80.70;;;;;;5095094;28;20028;-64
2023/03/21 02:18:12;;;;;;;17.52;11.00;;;12.00;80.70;;;;;;5080069;28;20058;-65
2023/03/21 02:21:11;;;;;;;15.13;11.07;;;12.00;80.70;;;;;;5092043;28;20388;-65
2023/03/21 02:24:06;;;;;;;14.27;10.60;;;12.00;80.70;;;;;;5075143;28;20368;-64
2023/03/21 02:27:20;;;;;;;15.60;10.85;;;12.00;80.70;;;;;;5083624;28;20028;-65
2023/03/21 02:29:52;;;;;;;15.20;10.48;;;12.00;80.80;;;;;;5082009;28;20036;-65
2023/03/21 02:32:25;;;;;;;;;;;12.00;80.70;;;;;;5091857;28;20135;-64
2023/03/21 02:35:31;;;;;;;14.70;10.70;;;12.00;80.70;;;;;;5120017;27;20000;-64
2023/03/21 02:38:31;;;;;;;17.50;10.98;;;12.00;80.60;;;;;;5098505;28;20436;-64
2023/03/21 02:41:01;;;;;;;15.30;11.30;;;12.00;80.60;;;;;;5093498;28;20062;-65
2023/03/21 02:43:34;;;;;;;17.27;12.20;;;12.00;80.70;;;;;;5098009;28;20027;-64
2023/03/21 02:46:13;;;;;;;18.98;12.45;;;12.00;80.70;;;;;;5092482;28;20024;-65
2023/03/21 02:48:51;;;;;;;18.77;12.50;;;12.00;80.70;;;;;;5098850;28;20482;-65
2023/03/21 02:51:21;;;;;;;18.15;13.15;;;12.00;80.80;;;;;;5099015;28;20111;-65
2023/03/21 02:53:53;;;;;;;16.73;12.35;;;12.00;80.80;;;;;;5099886;28;20393;-65
2023/03/21 02:56:22;;;;;;;17.85;12.38;;;12.00;80.80;;;;;;5076978;28;20032;-64
2023/03/21 02:58:53;;;;;;;19.13;12.52;;;12.00;81.50;;;;;;5092297;28;20502;-64
2023/03/21 03:01:19;;;;;;;18.35;12.32;;;12.00;80.90;;;;;;5094859;28;20086;-64
2023/03/21 03:03:47;;;;;;;18.92;12.70;;;12.00;80.90;;;;;;5081083;28;20317;-65
2023/03/21 03:06:18;;;;;;;17.33;11.88;;;12.00;80.90;;;;;;5078089;28;20027;-64
2023/03/21 03:08:48;;;;;;;;;;;12.00;80.90;;;;;;5080725;28;20049;-64
2023/03/21 03:11:30;;;;;;;16.30;11.07;;;12.00;80.80;;;;;;5098671;28;20003;-65
2023/03/21 03:14:21;;;;;;;17.23;11.73;;;12.00;80.80;;;;;;5083687;28;20026;-65
2023/03/21 03:16:47;;;;;;;17.05;11.60;;;12.00;80.80;;;;;;5093632;28;20024;-64
2023/03/21 03:19:26;;;;;;;17.50;12.45;;;12.00;80.80;;;;;;5081864;28;20046;-65
2023/03/21 03:22:18;;;;;;;16.52;12.55;;;12.00;80.80;;;;;;5079170;28;20016;-65
2023/03/21 03:24:56;;;;;;;18.50;12.00;;;12.00;80.80;;;;;;5092196;28;20058;-65
2023/03/21 03:27:30;;;;;;;16.90;11.85;;;12.00;80.80;;;;;;5091431;28;20060;-64
2023/03/21 03:30:02;;;;;;;17.10;11.98;;;12.00;80.90;;;;;;5086545;28;20387;-64
2023/03/21 03:32:36;;;;;;;17.60;12.60;;;12.00;80.40;;;;;;5097291;28;20035;-64
2023/03/21 03:35:04;;;;;;;17.80;12.32;;;12.00;80.90;;;;;;5093062;28;20020;-65
2023/03/21 03:37:36;;;;;;;17.55;12.05;;;12.00;80.90;;;;;;5065476;28;20392;-65
2023/03/21 03:40:07;;;;;;;20.00;12.00;;;12.00;81.00;;;;;;5092692;28;20030;-65
2023/03/21 03:42:39;;;;;;;19.92;12.05;;;12.00;81.10;;;;;;5092650;28;20032;-65
2023/03/21 03:45:16;;;;;;;19.00;11.48;;;12.00;81.10;;;;;;5092605;28;20365;-65
2023/03/21 03:47:54;;;;;;;15.45;11.45;;;12.00;81.00;;;;;;5083648;28;20024;-65
2023/03/21 03:50:38;;;;;;;21.95;12.65;;;12.00;81.10;;;;;;5091373;28;20045;-64
2023/03/21 03:53:24;;;;;;;17.00;10.52;;;12.00;81.20;;;;;;5099442;28;20032;-65
2023/03/21 03:55:55;;;;;;;17.38;11.27;;;12.00;81.20;;;;;;5078771;28;20021;-65
2023/03/21 03:58:23;;;;;;;17.35;10.77;;;12.00;81.20;;;;;;5092264;28;20467;-65
2023/03/21 04:00:50;;;;;;;18.85;11.45;;;12.00;81.20;;;;;;5084801;28;20114;-65
2023/03/21 04:03:16;;;;;;;16.85;10.45;;;11.90;81.10;;;;;;5087174;28;20152;-64
2023/03/21 04:05:45;;;;;;;17.67;10.38;;;12.00;81.20;;;;;;5099597;28;20077;-65
2023/03/21 04:08:14;;;;;;;18.25;10.27;;;12.00;81.10;;;;;;5092152;28;20031;-64
2023/03/21 04:10:43;;;;;;;14.88;10.15;;;11.90;81.00;;;;;;5091192;28;20103;-64
2023/03/21 04:13:09;;;;;;;15.75;9.90;;;11.90;81.00;;;;;;5081466;28;20020;-64
2023/03/21 04:15:44;;;;;;;14.20;9.43;;;11.90;80.90;;;;;;5093552;28;20089;-64
2023/03/21 04:18:14;;;;;;;16.60;9.20;;;11.90;80.90;;;;;;5092357;28;20030;-65
2023/03/21 04:20:40;;;;;;;13.25;9.02;;;11.90;80.90;;;;;;5098642;28;20024;-64
2023/03/21 04:23:06;;;;;;;18.23;9.40;;;11.90;80.80;;;;;;5071172;28;20447;-64
2023/03/21 04:25:34;;;;;;;15.10;9.40;;;11.90;80.80;;;;;;5097807;28;20086;-64
2023/03/21 04:28:01;;;;;;;17.67;8.73;;;11.90;80.80;;;;;;5091725;28;20211;-64
2023/03/21 04:30:41;;;;;;;15.57;8.27;;;11.90;80.80;;;;;;5096275;28;20043;-65
2023/03/21 04:33:12;;;;;;;12.35;8.13;;;11.90;80.80;;;;;;5081066;28;20044;-64
2023/03/21 04:35:44;;;;;;;16.02;9.40;;;11.90;80.90;;;;;;5078801;28;20032;-64
2023/03/21 04:38:11;;;;;;;14.73;8.13;;;11.90;80.80;;;;;;5109842;28;20463;-65
2023/03/21 04:40:37;;;;;;;15.43;8.20;;;11.90;80.80;;;;;;5095249;28;20032;-65
2023/03/21 04:43:03;;;;;;;14.70;8.63;;;11.90;80.80;;;;;;5097384;28;20039;-65
2023/03/21 04:45:29;;;;;;;15.63;8.25;;;11.90;80.80;;;;;;5099514;28;20093;-65
2023/03/21 04:47:56;;;;;;;13.93;8.32;;;11.90;80.80;;;;;;5103531;28;20024;-64
2023/03/21 04:50:22;;;;;;;13.00;8.40;;;11.90;80.70;;;;;;5095590;28;20027;-65
2023/03/21 04:52:47;;;;;;;15.98;8.45;;;11.90;80.70;;;;;;5095316;28;20143;-65
2023/03/21 04:55:14;;;;;;;13.95;7.85;;;11.90;80.70;;;;;;5096069;28;20040;-65
2023/03/21 04:57:40;;;;;;;14.75;8.32;;;11.80;80.70;;;;;;5106252;28;20028;-64
2023/03/21 05:00:10;;;;;;;13.68;7.75;;;11.90;80.70;;;;;;5074935;28;20036;-64
2023/03/21 05:02:37;;;;;;;14.82;7.90;;;11.90;80.70;;;;;;5097309;28;20118;-65
2023/03/21 05:05:09;;;;;;;14.80;8.38;;;11.90;80.70;;;;;;5098642;28;20334;-65
2023/03/21 05:07:36;;;;;;;17.33;7.50;;;11.90;80.60;;;;;;5081982;28;20028;-65
2023/03/21 05:10:03;;;;;;;15.68;8.13;;;11.90;80.60;;;;;;5093793;28;20024;-64
2023/03/21 05:12:29;;;;;;;14.20;8.48;;;11.90;80.60;;;;;;5085811;28;20036;-64
2023/03/21 05:14:55;;;;;;;13.30;7.82;;;11.90;80.50;;;;;;5092487;28;20033;-65
2023/03/21 05:17:23;;;;;;;14.30;8.05;;;11.90;80.60;;;;;;5087880;27;20027;-65
2023/03/21 05:19:51;;;;;;;16.65;7.82;;;11.80;80.50;;;;;;5086234;28;20529;-65
2023/03/21 05:22:18;;;;;;;17.17;9.75;;;11.80;80.50;;;;;;5077759;28;20445;-65
2023/03/21 05:24:48;;;;;;;14.30;8.18;;;11.80;80.50;;;;;;5081925;28;20039;-64
2023/03/21 05:27:34;;;;;;;14.77;7.95;;;11.80;80.50;;;;;;5098150;28;20100;-65
2023/03/21 05:30:13;;;;;;;14.40;8.23;;;11.80;80.40;;;;;;5076508;28;20024;-65
2023/03/21 05:32:39;;;;;;;17.40;8.85;;;11.80;80.50;;;;;;5097709;28;20464;-65
2023/03/21 05:35:08;;;;;;;15.13;8.05;;;11.80;80.40;;;;;;5076749;28;20047;-64
2023/03/21 05:37:34;;;;;;;16.23;8.25;;;11.80;80.50;;;;;;5092507;28;20020;-65
2023/03/21 05:40:00;;;;;;;14.27;8.43;;;11.80;80.50;;;;;;5081742;28;20081;-65
2023/03/21 05:42:30;;;;;;;15.68;8.40;;;11.80;80.50;;;;;;5092222;28;20039;-64
2023/03/21 05:44:55;;;;;;;15.50;7.97;;;11.80;80.50;;;;;;5088618;28;20012;-65
2023/03/21 05:47:30;;;;;;;15.05;8.10;;;11.80;80.50;;;;;;5079141;28;20157;-64
2023/03/21 05:49:58;;;;;;;15.63;8.65;;;11.80;80.60;;;;;;5105605;28;20389;-64
2023/03/21 05:52:24;;;;;;;13.85;8.07;;;11.80;80.60;;;;;;5093039;28;20032;-65
2023/03/21 05:54:50;;;;;;;13.90;7.40;;;11.80;80.70;;;;;;5087195;28;20034;-64
2023/03/21 05:57:19;;;;;;;18.48;9.20;;;11.80;80.70;;;;;;5093664;28;20027;-64
2023/03/21 06:00:00;;;;;;;13.90;8.50;;;11.80;80.70;;;;;;5092734;28;20115;-64
2023/03/21 06:02:27;;;;;;;17.00;7.97;;;11.80;80.70;;;;;;5093320;28;20433;-64
2023/03/21 06:04:55;;;;;;;18.27;8.50;;;11.80;80.70;;;;;;5094149;28;20020;-64
2023/03/21 06:07:21;;;;;;;15.52;8.68;;;11.80;80.70;;;;;;5094080;28;20020;-64
2023/03/21 06:09:48;;;;;;;17.27;8.07;;;11.80;80.70;;;;;;5070445;28;20036;-64
2023/03/21 06:12:14;;;;;;;14.98;9.00;;;11.80;80.70;;;;;;5091884;28;20354;-64
2023/03/21 06:14:51;;;;;;;12.70;7.70;;;11.80;80.70;;;;;;5094332;28;20084;-64
2023/03/21 06:17:27;;;;;;;13.73;7.90;;;11.80;80.70;;;;;;5095357;28;20165;-64
2023/03/21 06:19:59;;;;;;;13.70;7.63;;;11.80;80.70;;;;;;5085766;28;20103;-64
2023/03/21 06:22:51;;;;;;;14.15;8.07;;;11.80;80.70;;;;;;5080460;28;20024;-64
2023/03/21 06:25:17;;;;;;;15.30;8.68;;;11.80;80.70;;;;;;5093935;28;20115;-64
2023/03/21 06:27:43;;;;;;;18.52;8.48;;;11.80;80.70;;;;;;5077403;28;20356;-64
2023/03/21 06:30:09;;;;;;;14.27;8.73;;;11.80;80.60;;;;;;5092431;28;20418;-64
2023/03/21 06:32:56;;;;;;;15.43;8.25;;;11.90;80.70;;;;;;5099163;28;20020;-64
2023/03/21 06:35:22;;;;;;;13.95;8.50;;;11.90;80.60;;;;;;5106957;28;20038;-64
2023/03/21 06:37:48;;;;;;;17.05;8.68;;;11.80;80.50;;;;;;5079111;28;20051;-64
2023/03/21 06:40:14;;;;;;;11.82;7.38;;;11.80;80.40;;;;;;5075286;28;20024;-64
2023/03/21 06:42:40;;;;;;;14.98;7.82;;;11.90;80.50;;;;;;5101624;28;20028;-64
2023/03/21 06:45:10;;;;;;;12.82;7.00;;;11.90;80.40;;;;;;5075018;28;20039;-64
2023/03/21 06:47:36;;;;;;;15.15;8.50;;;11.90;80.30;;;;;;5087765;28;20016;-63
2023/03/21 06:50:05;;;;;;;16.13;8.00;;;11.90;80.30;;;;;;5089306;28;20017;-63
2023/03/21 06:52:37;;;;;;;12.98;7.80;;;11.90;80.30;;;;;;5077058;28;20128;-64
2023/03/21 06:55:03;;;;;;;14.45;7.05;;;11.90;80.20;;;;;;5093890;28;20168;-63
2023/03/21 06:57:30;;;;;;;13.88;7.78;;;12.00;80.10;;;;;;5076206;28;20039;-63
2023/03/21 06:59:55;;;;;;;17.02;7.75;;;12.00;80.00;;;;;;5094384;28;20027;-63
2023/03/21 07:02:22;;;;;;;14.88;7.93;;;12.00;79.90;;;;;;5070272;28;20114;-64
2023/03/21 07:05:00;;;;;;;11.48;7.20;;;12.10;79.80;;;;;;5090205;28;20012;-64
2023/03/21 07:07:28;;;;;;;15.57;7.78;;;12.20;79.80;;;;;;5075467;28;20365;-63
2023/03/21 07:09:54;;;;;;;14.35;7.97;;;12.10;79.70;;;;;;5090024;28;20054;-64
2023/03/21 07:12:22;;;;;;;16.25;7.60;;;12.10;79.70;;;;;;5076710;28;20020;-64
2023/03/21 07:15:14;;;;;;;13.38;7.45;;;12.20;79.70;;;;;;5087801;28;20373;-64
2023/03/21 07:17:42;;;;;;;15.25;7.18;;;12.10;79.60;;;;;;5093341;28;20103;-65
2023/03/21 07:20:11;;;;;;;12.63;7.10;;;12.20;79.60;;;;;;5074351;28;20107;-64
2023/03/21 07:22:38;;;;;;;13.85;7.03;;;12.20;79.50;;;;;;5095748;28;20031;-64
2023/03/21 07:25:04;;;;;;;15.60;8.48;;;12.20;79.50;;;;;;5087019;28;20046;-65
2023/03/21 07:27:36;;;;;;;14.70;7.95;;;12.20;79.40;;;;;;5094959;28;20024;-65
2023/03/21 07:30:04;;;;;;;16.50;7.22;;;12.20;79.40;;;;;;5094879;28;20097;-64
2023/03/21 07:32:34;;;;;;;11.85;7.20;;;12.30;79.40;;;;;;5094129;28;20028;-65
2023/03/21 07:35:01;;;;;;;17.10;7.68;;;12.30;79.30;;;;;;5075248;28;20330;-64
2023/03/21 07:37:27;;;;;;;14.88;7.32;;;12.30;79.20;;;;;;5092639;28;20089;-65
2023/03/21 07:39:53;;;;;;;12.27;7.22;;;12.30;79.20;;;;;;5091929;28;20067;-65
2023/03/21 07:42:19;;;;;;;11.75;6.60;;;12.30;79.10;;;;;;5095437;28;20020;-65
2023/03/21 07:44:45;;;;;;;14.00;6.53;;;12.30;79.10;;;;;;5092037;28;20119;-64
2023/03/21 07:47:11;;;;;;;13.38;6.85;;;12.30;79.00;;;;;;5094700;28;20047;-65
2023/03/21 07:49:37;;;;;;;15.38;6.45;;;12.40;79.00;;;;;;5093066;28;20024;-64
2023/03/21 07:52:04;;;;;;;12.00;6.22;;;12.40;79.00;;;;;;5099350;28;20107;-64
2023/03/21 07:54:30;;;;;;;13.32;7.25;;;12.40;79.00;;;;;;5089353;28;20081;-64
2023/03/21 07:56:56;;;;;;;13.02;6.90;;;12.40;79.10;;;;;;5093389;28;20032;-65
2023/03/21 07:59:22;;;;;;;12.13;6.30;;;12.30;79.10;;;;;;5097073;28;20476;-64
2023/03/21 08:01:48;;;;;;;10.63;5.75;;;12.40;79.20;;;;;;5099973;28;20062;-64
2023/03/21 08:04:14;;;;;;;10.45;5.93;;;12.40;79.20;;;;;;5093083;28;20123;-64
2023/03/21 08:06:40;;;;;;;12.82;6.60;;;12.40;79.20;;;;;;5096658;28;20051;-64
2023/03/21 08:09:06;;;;;;;15.90;7.30;;;12.40;79.20;;;;;;5099161;28;20028;-65
2023/03/21 08:11:31;;;;;;;14.80;6.75;;;12.40;79.30;;;;;;5095090;28;20032;-64
2023/03/21 08:13:59;;;;;;;12.00;6.35;;;12.40;79.40;;;;;;5093008;28;20085;-63
2023/03/21 08:16:25;;;;;;;12.25;6.18;;;12.30;79.40;;;;;;5089522;28;20459;-62
2023/03/21 08:18:51;;;;;;;12.02;5.97;;;12.30;79.40;;;;;;5093526;28;20027;-64
2023/03/21 08:21:17;;;;;;;12.77;5.88;;;12.40;79.60;;;;;;5096821;28;20028;-63
2023/03/21 08:23:43;;;;;;;8.98;5.55;;;12.40;79.50;;;;;;5093050;28;20090;-63
2023/03/21 08:26:09;;;;;;;11.45;5.90;;;12.40;79.60;;;;;;5095844;28;20024;-63
2023/03/21 08:28:35;;;;;;;14.05;5.90;;;12.40;79.60;;;;;;5092846;28;20035;-62
2023/03/21 08:31:07;;;;;;;13.27;5.72;;;12.40;79.60;;;;;;5085573;28;20024;-63
2023/03/21 08:33:32;;;;;;;;;;;12.50;79.60;;;;;;5101641;28;20024;-63
2023/03/21 08:36:02;;;;;;;12.63;5.75;;;12.50;79.50;;;;;;5092045;28;19934;-63
2023/03/21 08:38:32;;;;;;;11.30;5.50;;;12.50;79.60;;;;;;5102595;28;20081;-63
2023/03/21 08:41:01;;;;;;;13.48;6.22;;;12.40;79.60;;;;;;5100210;28;20040;-63
2023/03/21 08:43:27;;;;;;;11.23;5.50;;;12.50;79.80;;;;;;5095380;28;20059;-64
2023/03/21 08:45:54;;;;;;;16.35;7.18;;;12.50;79.70;;;;;;5082460;28;20085;-63
2023/03/21 08:48:21;;;;;;;12.05;6.45;;;12.50;79.70;;;;;;5099934;28;20043;-63
2023/03/21 08:50:47;;;;;;;13.82;6.07;;;12.50;79.70;;;;;;5095724;28;20063;-63
2023/03/21 08:53:13;;;;;;;12.35;6.35;;;12.50;79.70;;;;;;5104078;28;20058;-63
2023/03/21 08:55:39;;;;;;;12.77;6.00;;;12.60;79.70;;;;;;5094721;28;20044;-63
2023/03/21 08:58:06;;;;;;;13.18;6.22;;;12.60;79.60;;;;;;5103641;28;20038;-63
2023/03/21 09:00:31;;;;;;;13.05;5.22;;;12.60;79.50;;;;;;5094416;28;20107;-63
2023/03/21 09:02:57;;;;;;;12.88;5.68;;;12.60;79.50;;;;;;5094632;28;20115;-63
2023/03/21 09:05:27;;;;;;;12.18;6.07;;;12.70;79.50;;;;;;5078038;28;20063;-63
2023/03/21 09:07:53;;;;;;;11.25;5.72;;;12.70;79.50;;;;;;5092947;28;20448;-63
2023/03/21 09:10:21;;;;;;;14.77;6.00;;;12.70;79.50;;;;;;5094790;28;20034;-63
2023/03/21 09:12:49;;;;;;;10.70;5.20;;;12.70;79.50;;;;;;5094229;28;20040;-63
2023/03/21 09:15:16;;;;;;;11.88;5.25;;;12.70;79.50;;;;;;5114545;27;20382;-63
2023/03/21 09:17:43;;;;;;;13.27;5.75;;;12.80;79.50;;;;;;5095071;28;20035;-63
2023/03/21 09:20:17;;;;;;;10.40;5.05;;;12.80;79.40;;;;;;5092652;28;20061;-63
2023/03/21 09:22:48;;;;;;;12.88;6.70;;;12.80;79.50;;;;;;5094723;28;20027;-63
2023/03/21 09:25:15;;;;;;;13.93;6.53;;;12.80;79.50;;;;;;5102534;28;20040;-63
2023/03/21 09:27:44;;;;;;;12.32;5.95;;;12.80;79.50;;;;;;5095607;28;20439;-63
2023/03/21 09:30:12;;;;;;;14.18;7.03;;;12.80;79.50;;;;;;5084875;28;20035;-63
2023/03/21 09:32:38;;;;;;;13.30;6.72;;;12.90;79.40;;;;;;5106581;28;20032;-63
2023/03/21 09:35:06;;;;;;;13.85;6.63;;;12.90;79.30;;;;;;5085135;28;20024;-63
2023/03/21 09:37:37;;;;;;;13.02;5.60;;;12.90;79.30;;;;;;5095339;28;20032;-63
2023/03/21 09:40:07;;;;;;;11.10;6.13;;;12.90;79.20;;;;;;5086022;28;20133;-63
2023/03/21 09:42:47;;;;;;;11.85;6.25;;;12.90;79.20;;;;;;5095617;28;20040;-63
2023/03/21 09:45:26;;;;;;;11.23;5.80;;;12.90;79.10;;;;;;5095071;28;20455;-63
2023/03/21 09:47:52;;;;;;;12.63;5.65;;;12.90;79.20;;;;;;5095540;28;20032;-63
2023/03/21 09:50:27;;;;;;;12.32;6.28;;;12.90;79.20;;;;;;5083168;28;20106;-62
2023/03/21 09:53:00;;;;;;;14.20;5.68;;;12.90;79.20;;;;;;5095225;28;20039;-63
2023/03/21 09:55:33;;;;;;;14.27;6.38;;;12.90;79.20;;;;;;5093504;28;20464;-62
2023/03/21 09:58:29;;;;;;;11.57;5.28;;;12.90;79.10;;;;;;5093766;28;20373;-62
2023/03/21 10:01:06;;;;;;;11.25;5.38;;;12.90;79.10;;;;;;5094803;28;20031;-63
2023/03/21 10:03:36;;;;;;;12.27;5.45;;;12.90;79.10;;;;;;5092048;28;20123;-62
2023/03/21 10:06:14;;;;;;;13.95;5.38;;;12.90;79.10;;;;;;5091611;28;20035;-61
2023/03/21 10:08:41;;;;;;;12.35;5.25;;;12.90;79.10;;;;;;5091786;28;20024;-62
2023/03/21 10:11:20;;;;;;;12.57;5.25;;;12.90;79.00;;;;;;5093682;28;20027;-62
2023/03/21 10:14:12;;;;;;;13.55;5.93;;;13.00;79.00;;;;;;5092571;28;20020;-64
2023/03/21 10:16:47;;;;;;;11.25;4.90;;;13.00;78.90;;;;;;5092699;28;20101;-63
2023/03/21 10:19:16;;;;;;;13.52;6.15;;;13.10;78.80;;;;;;5094396;28;20043;-63
2023/03/21 10:21:45;;;;;;;10.60;5.70;;;13.10;78.60;;;;;;5088647;28;20036;-64
2023/03/21 10:24:18;;;;;;;13.82;6.20;;;13.20;78.50;;;;;;5092592;28;20036;-63
2023/03/21 10:26:45;;;;;;;8.93;4.57;;;13.20;78.40;;;;;;5095051;28;20334;-63
2023/03/21 10:29:17;;;;;;;11.05;5.30;;;13.30;78.30;;;;;;5094333;28;20055;-63
2023/03/21 10:31:45;;;;;;;10.65;4.82;;;13.40;78.00;;;;;;5094833;28;20020;-64
2023/03/21 10:34:17;;;;;;;10.45;4.85;;;13.50;78.00;;;;;;5093635;28;20457;-63
2023/03/21 10:36:44;;;;;;;9.68;5.20;;;13.50;77.80;;;;;;5095114;28;20028;-64
2023/03/21 10:39:21;;;;;;;12.23;5.75;;;13.60;77.70;;;;;;5090930;28;20487;-63
2023/03/21 10:41:47;;;;;;;12.15;5.80;;;13.60;77.60;;;;;;5096647;28;20046;-62
2023/03/21 10:44:17;;;;;;;12.50;5.47;;;13.70;77.60;;;;;;5092541;28;20445;-63
2023/03/21 10:47:24;;;;;;;9.20;5.32;;;13.70;78.10;;;;;;5097416;28;20072;-63
2023/03/21 10:49:49;;;;;;;14.00;5.60;;;13.70;77.30;;;;;;5075740;28;20095;-63
2023/03/21 10:52:20;;;;;;;11.25;5.60;;;13.70;77.30;;;;;;5097419;28;20028;-63
2023/03/21 10:54:47;;;;;;;9.18;4.85;;;13.70;77.10;;;;;;5083823;28;20024;-63
2023/03/21 10:57:20;;;;;;;10.90;5.75;;;13.70;77.10;;;;;;5100661;28;20024;-63
2023/03/21 10:59:56;;;;;;;13.50;5.60;;;13.70;77.10;;;;;;5093799;28;20020;-63
2023/03/21 11:02:32;;;;;;;8.95;4.97;;;13.70;77.10;;;;;;5091973;28;20016;-63
2023/03/21 11:05:15;;;;;;;10.15;5.00;;;13.70;77.10;;;;;;5095731;28;20080;-63
2023/03/21 11:07:41;;;;;;;11.63;5.63;;;13.80;77.00;;;;;;5091443;28;21802;-62
2023/03/21 11:10:28;;;;;;;10.98;5.20;;;13.90;76.90;;;;;;5095237;28;20437;-63
2023/03/21 11:12:57;;;;;;;12.68;5.38;;;14.00;76.70;;;;;;5096534;28;20136;-63
2023/03/21 11:15:30;;;;;;;11.43;5.55;;;14.10;76.50;;;;;;5098441;28;20024;-63
2023/03/21 11:17:57;;;;;;;10.45;5.07;;;14.20;76.40;;;;;;5096061;28;20028;-63
2023/03/21 11:20:24;;;;;;;10.02;5.45;;;14.20;76.10;;;;;;5092310;28;20317;-63
2023/03/21 11:22:54;;;;;;;10.93;5.15;;;14.30;76.00;;;;;;5099255;28;20036;-63
2023/03/21 11:25:30;;;;;;;10.98;5.00;;;14.30;76.00;;;;;;5095281;28;20444;-64
2023/03/21 11:27:56;;;;;;;11.02;5.00;;;14.20;75.80;;;;;;5090183;28;20095;-63
2023/03/21 11:30:25;;;;;;;10.07;4.70;;;14.20;75.80;;;;;;5089090;28;20385;-62
2023/03/21 11:32:57;;;;;;;9.45;4.47;;;14.20;75.70;;;;;;5094495;28;20102;-63
2023/03/21 11:35:26;;;;;;;9.32;4.57;;;14.30;75.50;;;;;;5094853;28;20291;-63
2023/03/21 11:37:55;;;;;;;8.70;4.30;;;14.30;75.40;;;;;;5090480;28;20451;-63
2023/03/21 11:40:31;;;;;;;11.15;4.82;;;14.30;75.20;;;;;;5093094;28;20130;-64
2023/03/21 11:42:58;;;;;;;11.32;5.13;;;14.30;75.20;;;;;;5091773;28;20372;-64
2023/03/21 11:45:30;;;;;;;10.18;5.07;;;14.30;75.00;;;;;;5093119;28;20021;-63
2023/03/21 11:47:59;;;;;;;12.55;4.55;;;14.30;74.90;;;;;;5096393;28;20027;-64
2023/03/21 11:50:38;;;;;;;11.57;4.82;;;14.40;74.90;;;;;;5092656;28;20021;-62
2023/03/21 11:53:16;;;;;;;10.15;4.70;;;14.50;74.70;;;;;;5096888;28;20148;-63
2023/03/21 11:56:16;;;;;;;9.35;4.38;;;14.60;74.60;;;;;;5099567;28;20031;-63
2023/03/21 11:59:08;;;;;;;11.40;5.18;;;14.50;74.20;;;;;;5089721;28;20355;-63
2023/03/21 12:02:08;;;;;;;10.77;4.60;;;14.50;74.00;;;;;;5078848;28;20040;-63
2023/03/21 12:05:00;;;;;;;8.88;4.07;;;14.60;74.00;;;;;;5091959;28;20073;-63
2023/03/21 12:07:48;;;;;;;10.40;4.28;;;14.60;73.80;;;;;;5090496;28;20460;-63
2023/03/21 12:10:33;;;;;;;8.50;4.78;;;14.60;73.70;;;;;;5087055;28;20052;-62
2023/03/21 12:13:29;;;;;;;9.40;4.57;;;14.60;73.60;;;;;;5089280;28;20120;-63
2023/03/21 12:16:32;;;;;;;10.43;4.82;;;14.60;73.70;;;;;;5085441;28;20445;-63
2023/03/21 12:19:35;;;;;;;10.82;4.93;;;14.60;73.60;;;;;;5088894;28;20123;-63
2023/03/21 12:22:05;;;;;;;10.18;4.90;;;14.60;73.50;;;;;;5092413;28;20036;-63
2023/03/21 12:24:48;;;;;;;9.45;4.80;;;14.70;73.50;;;;;;5094334;28;20048;-63
2023/03/21 12:27:45;;;;;;;15.75;4.90;;;14.70;73.40;;;;;;5094452;28;20036;-63
2023/03/21 12:30:29;;;;;;;8.70;4.43;;;14.70;73.30;;;;;;5095176;28;20461;-63
2023/03/21 12:33:42;;;;;;;9.48;4.43;;;14.70;73.20;;;;;;5095087;28;20036;-63
2023/03/21 12:36:21;;;;;;;9.75;4.47;;;14.60;73.00;;;;;;5070664;28;20154;-62
2023/03/21 12:39:16;;;;;;;9.00;4.93;;;14.60;73.10;;;;;;5096368;28;20028;-63
2023/03/21 12:42:03;;;;;;;10.98;4.75;;;14.60;72.90;;;;;;5084709;28;20031;-63
2023/03/21 12:44:38;;;;;;;9.50;4.63;;;14.60;72.90;;;;;;5096226;28;20040;-63
2023/03/21 12:47:24;;;;;;;9.25;4.35;;;14.60;72.80;;;;;;5096590;28;20032;-62
2023/03/21 12:50:36;;;;;;;13.15;4.88;;;14.60;72.70;;;;;;5096883;28;20052;-63
2023/03/21 12:53:20;;;;;;;;;;;14.50;72.60;;;;;;5075828;28;20123;-63
2023/03/21 12:55:46;;;;;;;8.48;3.83;;;14.50;72.90;;;;;;5084355;28;19992;-63
2023/03/21 12:58:21;;;;;;;11.98;4.95;;;14.50;72.70;;;;;;5094548;28;20127;-63
2023/03/21 13:00:53;;;;;;;10.80;4.72;;;14.50;72.60;;;;;;5095707;28;20030;-62